Weather observations for the past three days for
Chase City Municipal Airport
Imperial (Metric)
Date Time (edt) Wind (mph) Vis. (mi.) Weather Sky Cond. Temperature (ºF) Relative Humidity Wind Chill (°F) Heat Index (°F) Pressure Precipitation (in)
Air Dwpt 6 hour altimeter (in) sea level (mb) 1 hr 3 hr 6 hr
Max. Min.
05 08:35 SW 6 10.00 Fair CLR 62.8 48 59% 30.01 0.0
05 08:15 SW 5 10.00 Fair CLR 61.3 48.2 62% 30.01 0.0
05 07:55 SW 8 10.00 Fair CLR 59.9 47.7 61.7 55.8 64% 30 0.0
05 07:35 Calm 10.00 Fair CLR 58.5 47.7 68% 30 0.0
05 07:15 SW 3 10.00 Fair CLR 57.2 47.5 70% 30 0.0
05 06:55 Calm 10.00 Fair CLR 56.3 47.3 72% 30 0.0
05 06:35 Calm 10.00 Fair CLR 56.1 47.3 72% 29.99 0.0
05 06:15 Calm 10.00 Fair CLR 56.3 47.3 72% 29.99 0.0
05 05:55 Calm 10.00 Fair CLR 57.2 47.3 70% 29.98 0.0
05 05:35 Calm 10.00 Fair CLR 57.7 47.3 68% 29.98 0.0
05 05:15 S 3 10.00 Fair CLR 58.1 47.5 68% 29.98 0.0
05 04:55 S 3 10.00 Fair CLR 58.3 47.3 67% 29.97 0.0
05 04:35 Calm 10.00 Fair CLR 59 47.3 65% 29.97 0.0
05 04:15 S 3 10.00 Fair CLR 59.7 47.5 64% 29.97 0.0
05 03:55 SE 3 10.00 Fair CLR 59.9 47.5 64% 29.96 0.0
05 03:35 S 3 10.00 Fair CLR 60.4 47.5 63% 29.96 0.0
05 03:15 S 3 10.00 Fair CLR 60.4 47.5 63% 29.96 0.0
05 02:55 S 3 10.00 Fair CLR 60.8 47.5 62% 29.95 0.0
05 02:35 SE 5 10.00 Fair CLR 61.2 47.3 61% 29.95 0.0
05 02:15 S 5 10.00 Fair CLR 61.3 46.6 59% 29.95 0.0
05 01:55 S 6 10.00 Fair CLR 61.7 45.7 70.7 61.7 56% 29.95 0.0
05 01:35 SE 5 10.00 Fair CLR 62.2 44.6 53% 29.95 0.0
05 01:15 SE 3 10.00 Fair CLR 62.6 43.3 50% 29.96 0.0
05 00:55 SE 3 10.00 Fair CLR 63.1 42.8 48% 29.95 0.0
05 00:35 SE 5 10.00 Fair CLR 63.7 41.9 45% 29.95 0.0
05 00:15 S 6 10.00 Fair CLR 64.6 41.4 43% 29.95 0.0
04 23:55 SE 5 10.00 Fair CLR 65.3 41.2 41% 29.95 0.0
04 23:35 Calm 10.00 Fair CLR 66.2 41 40% 29.94 0.0
04 23:15 Calm 10.00 Fair CLR 65.7 41 41% 29.94 0.0
04 22:55 Calm 10.00 Fair CLR 65.3 42.1 43% 29.94 0.0
04 22:35 SE 3 10.00 Fair CLR 64.4 43.3 47% 29.94 0.0
04 22:15 Calm 10.00 Fair CLR 63.5 44.4 50% 29.94 0.0
04 21:55 Calm 10.00 Fair CLR 64.8 43.5 46% 29.94 0.0
04 21:35 Calm 10.00 Fair CLR 65.5 43.7 45% 29.92 0.0
04 21:15 Calm 10.00 Fair CLR 66 44.4 46% 29.92 0.0
04 20:55 Calm 10.00 Fair CLR 65.3 45.1 48% 29.91 0.0
04 20:35 Calm 10.00 Fair CLR 66.7 45.5 47% 29.91 0.0
04 20:15 Calm 10.00 Fair CLR 68.4 45 43% 29.91 0.0
04 19:55 Calm 10.00 Fair CLR 70.5 44.8 77.9 70.3 40% 29.91 0.0
04 19:35 Calm 10.00 Fair CLR 73.8 43.5 34% 29.9 0.0
04 19:15 Calm 10.00 Fair CLR 75.4 42.6 31% 77 29.9 0.0
04 18:55 Calm 10.00 Fair CLR 74.8 41.5 30% 29.9 0.0
04 18:35 Calm 10.00 Fair CLR 74.8 40.6 29% 29.91 0.0
04 18:15 S 3 10.00 Fair CLR 75.6 40.1 28% 77 29.91 0.0
04 17:55 S 5 10.00 Fair CLR 76.1 39.2 27% 77 29.91 0.0
04 17:35 SW 7 10.00 Fair CLR 77.2 39.4 26% 77 29.91 0.0
04 17:15 SW 3 10.00 Fair CLR 76.1 40.3 28% 77 29.9 0.0
04 16:55 W 6 10.00 Partly Cloudy SCT110 76.5 39.9 27% 77 29.9 0.0
04 16:35 SW 6 10.00 Partly Cloudy SCT110 76.6 38.7 25% 77 29.91 0.0
04 16:15 W 6 10.00 Partly Cloudy SCT120 75.2 38.7 27% 77 29.92 0.0
04 15:55 SW 5 10.00 Fair CLR 77.4 38.3 25% 77 29.92 0.0
04 15:35 W 7 10.00 Fair CLR 77.2 36.9 23% 77 29.92 0.0
04 15:15 S 7 10.00 Fair CLR 76.6 35.2 22% 77 29.93 0.0
04 14:55 SW 8 10.00 Fair CLR 76.5 33.6 21% 77 29.94 0.0
04 14:35 SW 5 10.00 Fair CLR 75.2 32.9 21% 76 29.95 0.0
04 14:15 W 7 10.00 Fair CLR 74.7 32.5 21% 29.95 0.0
04 13:55 W 3 10.00 Fair CLR 75 32.9 75 49.3 21% 76 29.96 0.0
04 13:35 SW 6 10.00 Fair CLR 73.4 32.5 22% 29.96 0.0
04 13:15 W 6 10.00 Fair CLR 72.5 33.1 24% 29.98 0.0
04 12:55 SW 6 10.00 Fair CLR 71.4 34.7 26% 29.99 0.0
04 12:35 W 6 10.00 Fair CLR 71.2 35.1 27% 29.99 0.0
04 12:15 W 7 10.00 Fair CLR 70.2 36.3 29% 30 0.0
04 11:55 W 3 10.00 Fair CLR 70 36.1 29% 30.01 0.0
04 11:35 W 7 10.00 Fair CLR 69.3 36.3 30% 30.01 0.0
04 11:15 S 6 10.00 Fair CLR 68.2 35.2 30% 30.01 0.0
04 10:55 W 5 10.00 Fair CLR 67.3 35.8 31% 30.01 0.0
04 10:35 SW 5 10.00 Fair CLR 65.5 39.2 38% 30.02 0.0
04 10:15 Calm 10.00 Fair CLR 62.8 40.6 44% 30.02 0.0
04 09:55 SW 5 10.00 Fair CLR 60.8 40.1 47% 30.03 0.0
04 09:35 SW 3 10.00 Fair CLR 59.5 41.2 51% 30.02 0.0
04 09:15 W 5 10.00 Partly Cloudy SCT110 57 40.8 55% 30.03 0.0
04 08:55 SW 3 10.00 Mostly Cloudy BKN120 54.7 39.9 58% 30.03 0.0
04 08:35 SW 3 10.00 Partly Cloudy SCT120 52.2 38.7 60% 30.03 0.0
04 08:15 Calm 10.00 Fair CLR 50 37.2 62% 30.03 0.0
04 07:55 Calm 10.00 Fair CLR 49.5 36.5 49.5 40.6 61% 30.04 0.0
04 07:35 Calm 10.00 Fair CLR 46.8 37.4 70% 30.04 0.0
04 07:15 Calm 10.00 Fair CLR 45.3 38.3 77% 30.04 0.0
04 06:55 Calm 10.00 Fair CLR 43.3 37.4 80% 30.04 0.0
04 06:35 Calm 10.00 Fair CLR 41 36.7 85% 30.04 0.0
04 06:15 Calm 10.00 Fair CLR 40.6 36.7 86% 30.03 0.0
04 05:55 Calm 10.00 Fair CLR 41.2 36.5 83% 30.03 0.0
04 05:35 Calm 10.00 Fair CLR 42.6 36.7 80% 30.02 0.0
04 05:15 Calm 10.00 Fair CLR 42.8 36.5 79% 30.03 0.0
04 04:55 Calm 10.00 Partly Cloudy SCT090 43.5 36.5 76% 30.03 0.0
04 04:35 Calm 10.00 Mostly Cloudy BKN090 44.6 36.5 73% 30.03 0.0
04 04:15 Calm 10.00 Overcast OVC090 45.5 37.8 74% 30.03 0.0
04 03:55 Calm 10.00 Overcast OVC090 45.3 37.2 73% 30.03 0.0
04 03:35 Calm 10.00 Mostly Cloudy SCT100 BKN120 43.7 37.2 78% 30.03 0.0
04 03:15 Calm 10.00 Overcast OVC110 44.6 38.5 79% 30.03 0.0
04 02:55 Calm 10.00 Overcast OVC110 44.1 38.3 80% 30.03 0.0
04 02:35 Calm 10.00 Overcast OVC110 43.9 37.8 79% 30.04 0.0
04 02:15 SE 3 10.00 Mostly Cloudy BKN110 42.3 37.9 85% 30.03 0.0
04 01:55 SE 3 10.00 Fair CLR 42.1 37.6 54.9 42.1 84% 30.03 0.0
04 01:35 Calm 10.00 Fair CLR 42.3 37.4 83% 30.04 0.0
04 01:15 Calm 10.00 Fair CLR 42.4 37 81% 30.04 0.0
04 00:55 Calm 10.00 Fair CLR 42.8 37.2 81% 30.03 0.0
04 00:35 Calm 10.00 Fair CLR 43.2 37 79% 30.03 0.0
04 00:15 Calm 10.00 Fair CLR 43.2 36.1 76% 30.03 0.0
03 23:55 Calm 10.00 Fair CLR 43.3 35.6 74% 30.04 0.0
03 23:35 Calm 10.00 Fair CLR 43.9 34.7 70% 30.04 0.0
03 23:15 Calm 10.00 Fair CLR 44.1 34.3 69% 30.04 0.0
03 22:55 Calm 10.00 Fair CLR 44.6 34 66% 30.03 0.0
03 22:35 Calm 10.00 Fair CLR 45.1 34 65% 30.04 0.0
03 22:15 Calm 10.00 Fair CLR 45.5 34.2 65% 30.03 0.0
03 21:55 Calm 10.00 Fair CLR 45.9 34.2 64% 30.02 0.0
03 21:35 Calm 10.00 Fair CLR 46.8 34 61% 30.02 0.0
03 21:15 Calm 10.00 Fair CLR 47.8 34.3 60% 30.02 0.0
03 20:55 Calm 10.00 Fair CLR 48.6 34.9 59% 30.01 0.0
03 20:35 Calm 10.00 Fair CLR 50.5 34.2 54% 30.01 0.0
03 20:15 Calm 10.00 Fair CLR 52.9 34.5 50% 30.01 0.0
03 19:55 Calm 10.00 Fair CLR 56.1 33.8 63.7 56.1 43% 30 0.0
03 19:35 Calm 10.00 Fair CLR 59.5 28.2 30% 30 0.0
03 19:15 Calm 10.00 Fair CLR 61.9 25.3 25% 30 0.0
03 18:55 W 5 10.00 Fair CLR 62.2 23.5 23% 30 0.0
03 18:35 SW 5 10.00 Fair CLR 63 23.9 22% 30 0.0
03 18:15 W 7 10.00 Fair CLR 63.3 23.4 22% 30.01 0.0
03 17:55 W 5 10.00 Fair CLR 63.5 23.4 22% 30.01 0.0
03 17:35 W 5 10.00 Fair CLR 63.3 22.8 21% 30.01 0.0
03 17:15 W 6 10.00 Fair CLR 63.1 24.3 23% 30.01 0.0
03 16:55 SW 5 10.00 Fair CLR 63.1 25.7 24% 30.01 0.0
03 16:35 NW 6 10.00 Fair CLR 62.4 24.1 23% 30.02 0.0
03 16:15 W 5 10.00 Fair CLR 62.6 25.2 24% 30.02 0.0
03 15:55 W 5 10.00 Fair CLR 61.7 25.5 25% 30.03 0.0
03 15:35 SW 5 10.00 Fair CLR 61.3 25 25% 30.03 0.0
03 14:55 SW 3 10.00 Fair CLR 60.3 24.4 25% 30.05 0.0
03 14:35 Calm 10.00 Fair CLR 60.4 24.4 25% 30.06 0.0
03 14:15 NW 6 10.00 Fair CLR 59.7 25.9 27% 30.06 0.0
03 13:35 W 7 10.00 Fair CLR 57.7 23.2 26% 30.07 0.0
03 13:15 W 10 G 18 10.00 Fair CLR 57.6 23.4 27% 30.08 0.0
03 12:55 W 8 10.00 Fair CLR 56.7 23.5 28% 30.09 0.0
03 12:35 W 5 10.00 Fair CLR 56.8 24.8 29% 30.09 0.0
03 12:15 NW 9 10.00 Fair CLR 55.9 25.7 31% 30.1 0.0
03 11:55 NW 8 10.00 Fair CLR 54.9 24.1 30% 30.1 0.0
03 11:35 NW 5 10.00 Fair CLR 54.9 24.6 31% 30.11 0.0
03 11:15 Calm 10.00 Fair CLR 54 24.8 32% 30.11 0.0
03 10:55 NW 6 10.00 Fair CLR 53.4 24.4 32% 30.11 0.0
03 10:35 N 6 10.00 Fair CLR 53.1 25.7 35% 30.1 0.0
03 10:15 NW 7 G 18 10.00 Fair CLR 52.3 26.1 36% 30.1 0.0
03 09:55 NW 8 10.00 Fair CLR 52 27.3 39% 30.1 0.0
03 09:35 NW 8 10.00 Fair CLR 50.4 27.5 41% 30.1 0.0
03 09:15 NW 7 10.00 Fair CLR 49.8 29.1 45% 47 30.1 0.0
03 08:55 NW 8 10.00 Fair CLR 48.4 30.2 50% 45 30.1 0.0
03 08:35 NW 3 10.00 Fair CLR 46.8 30.9 54% 30.1 0.0
03 08:15 NW 5 10.00 Fair CLR 45.3 31.3 58% 43 30.09 0.0
03 07:55 NW 5 10.00 Fair CLR 43 32 45.5 35.8 65% 41 30.09 0.0
03 07:35 NW 3 10.00 Fair CLR 41.9 31.6 67% 30.08 0.0
03 07:15 Calm 10.00 Fair CLR 39.6 32 74% 30.07 0.0
03 06:55 Calm 10.00 Fair CLR 37.8 32 80% 30.06 0.0
03 06:35 Calm 10.00 Fair CLR 37.4 31.8 80% 30.05 0.0
03 06:15 Calm 10.00 Fair CLR 36 32.9 89% 30.04 0.0
03 05:55 Calm 10.00 Fair CLR 36.3 33.3 89% 30.03 0.0
03 05:35 Calm 10.00 Fair CLR 36.1 32.9 88% 30.02 0.0
03 05:15 Calm 10.00 Partly Cloudy SCT085 37.6 32.9 83% 30.01 0.0
03 04:55 Calm 10.00 Partly Cloudy SCT085 39 32.4 77% 30.01 0.0
03 04:35 Calm 10.00 Partly Cloudy SCT085 40.3 32.2 73% 30 0.0
03 04:15 Calm 10.00 Overcast OVC085 42.4 31.8 66% 30 0.0
03 03:55 NW 3 10.00 Overcast OVC085 43.7 31.5 62% 29.99 0.0
03 03:35 NW 3 10.00 Overcast OVC080 43.5 31.8 63% 29.99 0.0
03 03:15 Calm 10.00 Overcast BKN080 OVC090 43.3 32 64% 29.98 0.0
03 02:55 Calm 10.00 Mostly Cloudy BKN080 BKN090 44.2 32 62% 29.97 0.0
03 02:35 NW 3 10.00 Overcast SCT050 BKN065 OVC080 45 31.5 59% 29.97 0.0
03 02:15 NW 3 10.00 Overcast SCT050 OVC065 45.5 31.5 58% 29.97 0.0
03 01:55 NW 3 10.00 Overcast BKN065 OVC085 45.5 32 52.9 43.2 59% 29.96 0.0
03 01:35 W 5 10.00 Overcast OVC060 45.9 32 59% 44 29.96 0.0
03 01:15 Calm 10.00 Overcast BKN050 OVC070 46 32.9 60% 29.96 0.0
03 00:55 W 5 10.00 Mostly Cloudy BKN060 BKN070 45.9 32.9 61% 44 29.96 0.0
03 00:35 W 5 10.00 Partly Cloudy SCT060 45.7 33.8 63% 44 29.95 0.0
03 00:15 Calm 10.00 Fair CLR 43.7 40.5 88% 29.95 0.0
02 23:55 Calm 10.00 Fair CLR 43.9 42.3 94% 29.95 0.0
02 23:35 Calm 10.00 Fair CLR 43.7 42.8 97% 29.95 0.0
02 23:15 Calm 10.00 Partly Cloudy SCT100 45.1 42.6 91% 29.95 0.0
02 22:55 Calm 10.00 Overcast OVC100 46.6 43.3 89% 29.95 0.0
02 22:35 Calm 10.00 Overcast OVC100 46.6 43.7 90% 29.95 0.0
02 22:15 Calm 10.00 Overcast OVC100 46.9 43.3 87% 29.95 0.0
02 21:55 Calm 10.00 Mostly Cloudy BKN100 46.8 42.8 86% 29.94 0.0
02 21:35 Calm 10.00 Partly Cloudy SCT090 47.8 42.4 82% 29.94 0.0
02 21:15 Calm 10.00 Mostly Cloudy BKN090 49.1 42.1 77% 29.93 0.0
02 20:55 Calm 10.00 Mostly Cloudy BKN090 50 42.4 75% 29.93 0.0
02 20:35 Calm 10.00 Mostly Cloudy SCT080 BKN090 50.5 41.9 72% 29.92 0.0
02 20:15 Calm 10.00 Overcast BKN080 OVC090 52.5 41.9 67% 29.91 0.0
02 19:55 Calm 10.00 Partly Cloudy SCT080 53.1 41.2 59.4 53.1 64% 29.9 0.0
02 19:35 Calm 10.00 Fair CLR 54.7 40.1 58% 29.89 0.0
02 19:15 Calm 10.00 Fair CLR 55.6 38.7 53% 29.88 0.0
02 18:55 SE 3 10.00 Fair CLR 57.2 39 51% 29.88 0.0
02 18:35 Calm 10.00 Fair CLR 56.3 39 53% 29.88 0.0
02 18:15 Calm 10.00 Fair CLR 56.8 36.9 47% 29.88 0.0
02 17:55 Calm 10.00 Fair CLR 57.7 36 44% 29.87 0.0
02 17:35 Calm 10.00 Partly Cloudy SCT046 SCT050 SCT085 58.6 37.2 45% 29.88 0.0
02 17:15 E 5 10.00 Partly Cloudy SCT046 SCT050 58.1 37.6 47% 29.88 0.0
02 16:55 Calm 10.00 Partly Cloudy SCT046 SCT070 57 36.1 46% 29.88 0.0
02 16:35 N 5 10.00 Partly Cloudy SCT070 57.2 36.5 46% 29.88 0.0
02 16:15 Calm 10.00 Mostly Cloudy SCT050 BKN070 56.5 36.9 48% 29.89 0.0
02 15:55 N 5 10.00 Mostly Cloudy SCT042 BKN048 BKN070 56.7 37.9 50% 29.89 0.0
02 15:35 NE 6 10.00 Overcast BKN041 BKN048 OVC070 56.7 37.4 49% 29.89 0.0
02 15:15 NE 5 10.00 Overcast BKN039 BKN046 OVC070 56.7 38.1 50% 29.9 0.0
02 14:55 N 5 10.00 Overcast OVC039 57.6 39.2 51% 29.9 0.0
02 14:35 N 6 10.00 Overcast BKN039 OVC045 57.4 39.9 52% 29.91 0.0
02 14:15 NE 6 10.00 Overcast SCT032 OVC043 56.5 40.3 55% 29.91 0.0
02 13:55 NE 7 10.00 Overcast SCT032 BKN040 OVC046 56.7 40.8 56.8 52 56% 29.91 0.0
02 13:35 NE 6 10.00 Overcast SCT032 OVC042 55.9 41 57% 29.92 0.0
02 13:15 NE 3 10.00 Overcast SCT032 BKN042 OVC090 55.9 40.8 57% 29.93 0.0
02 12:55 Calm 10.00 Mostly Cloudy SCT038 BKN065 BKN090 56.5 40.8 56% 29.94 0.0
02 12:35 N 3 10.00 Overcast SCT032 SCT039 OVC065 55.4 40.8 58% 29.96 0.0
02 12:15 N 5 10.00 Overcast SCT032 OVC075 55.2 40.5 58% 29.96 0.0
02 11:55 N 6 10.00 Overcast SCT065 OVC075 55.2 40.8 59% 29.96 0.0
02 11:35 N 7 10.00 Overcast SCT028 OVC065 54.7 41.5 61% 29.95 0.0
02 11:15 N 6 10.00 Overcast BKN028 BKN065 OVC080 54.7 41.2 61% 29.95 0.0
02 10:55 E 6 10.00 Overcast OVC080 54.5 42.3 64% 29.96 0.0
02 10:35 N 3 10.00 Overcast OVC080 54.7 42.8 64% 29.94 0.0
02 10:15 N 5 10.00 Overcast SCT065 OVC080 53.8 43 67% 29.95 0.0
02 09:55 Calm 10.00 Overcast SCT065 OVC080 53.6 43 67% 29.96 0.0
02 09:35 NE 5 10.00 Overcast OVC080 54.3 43.2 66% 29.94 0.0
02 09:15 NE 3 10.00 Overcast OVC080 53.4 43.3 69% 29.94 0.0
02 08:55 NE 3 10.00 Mostly Cloudy BKN080 BKN090 52.9 43.9 72% 29.94 0.0
Date Time (edt) Wind (mph) Vis. (mi.) Weather Sky Cond. Air Dwpt Max. Min. Relative Humidity Wind Chill (°F) Heat Index (°F) altimeter (in) sea level (mb) 1 hr 3 hr 6 hr
6 hour
Temperature (ºF) Pressure Precipitation (in)